Time;durP1;ratioP1;P1;durP2;ratioP2;P2;SDS_P1;SDS_P2;PMS_P1;PMS_P2;Temp;Humidity;BMP_temperature;BMP_pressure;BME280_temperature;BME280_humidity;BME280_pressure;Samples;Min_cycle;Max_cycle;Signal;HPM_P1;HPM_P2
2023/08/26 00:00:37;;;;;;;1.50;1.02;;;;;;;26.36;47.61;99506.97;5008754;28;20092;-89
2023/08/26 00:03:03;;;;;;;2.42;1.40;;;;;;;26.41;47.40;99524.50;5007960;28;20030;-89
2023/08/26 00:05:28;;;;;;;4.20;2.60;;;;;;;26.12;47.94;99501.75;5013086;28;20394;-88
2023/08/26 00:07:54;;;;;;;1.63;1.42;;;;;;;26.02;48.49;99536.78;5013409;28;20037;-88
2023/08/26 00:10:19;;;;;;;1.80;1.05;;;;;;;26.19;48.52;99548.94;5014048;28;20037;-88
2023/08/26 00:12:45;;;;;;;2.15;1.42;;;;;;;26.01;49.23;99562.97;5012209;28;20061;-89
2023/08/26 00:15:10;;;;;;;2.05;1.35;;;;;;;25.83;49.36;99529.31;5013310;28;20037;-89
2023/08/26 00:17:36;;;;;;;3.42;1.35;;;;;;;25.50;49.75;99502.22;5013291;28;20033;-88
2023/08/26 00:20:01;;;;;;;0.77;0.75;;;;;;;25.67;49.83;99543.19;5013303;28;20026;-88
2023/08/26 00:22:27;;;;;;;1.65;1.35;;;;;;;25.49;50.16;99519.38;5011357;28;20033;-87
2023/08/26 00:24:52;;;;;;;11.00;2.95;;;;;;;25.54;50.27;99530.66;5011409;28;20026;-88
2023/08/26 00:27:17;;;;;;;1.92;1.52;;;;;;;25.65;50.13;99543.31;5012136;28;20075;-87
2023/08/26 00:29:43;;;;;;;2.15;1.58;;;;;;;25.52;50.63;99545.28;5014040;28;20060;-88
2023/08/26 00:32:08;;;;;;;3.58;1.45;;;;;;;25.61;50.26;99555.34;5013708;28;20062;-88
2023/08/26 00:34:34;;;;;;;2.15;1.25;;;;;;;25.69;49.93;99549.34;4994868;28;20038;-88
2023/08/26 00:37:00;;;;;;;1.77;1.10;;;;;;;25.55;50.03;99545.91;5012581;28;20411;-88
2023/08/26 00:39:25;;;;;;;9.50;2.15;;;;;;;25.41;50.33;99531.75;5013357;28;20427;-87
2023/08/26 00:41:51;;;;;;;2.45;1.42;;;;;;;25.45;50.30;99554.84;5013448;28;20140;-88
2023/08/26 00:44:16;;;;;;;5.55;1.55;;;;;;;25.43;50.64;99568.47;5011077;28;20081;-88
2023/08/26 00:46:42;;;;;;;4.82;2.58;;;;;;;25.42;50.54;99555.94;5012387;28;20044;-88
2023/08/26 00:49:07;;;;;;;1.70;0.95;;;;;;;25.47;50.23;99534.84;5012513;28;20513;-89
2023/08/26 00:51:33;;;;;;;2.78;1.42;;;;;;;25.02;50.50;99486.19;5011466;28;20555;-89
2023/08/26 00:53:59;;;;;;;2.85;1.75;;;;;;;25.28;50.16;99500.31;5010749;28;20113;-89
2023/08/26 00:56:25;;;;;;;1.92;1.00;;;;;;;25.31;50.40;99527.09;5001933;28;20034;-89
2023/08/26 00:58:51;;;;;;;2.28;1.42;;;;;;;25.18;50.71;99535.28;4993683;28;20026;-88
2023/08/26 01:01:18;;;;;;;2.78;1.10;;;;;;;25.03;50.39;99493.31;4984306;28;20056;-89
2023/08/26 01:03:44;;;;;;;1.58;1.20;;;;;;;25.40;49.99;99533.63;4995046;28;20091;-88
2023/08/26 01:06:10;;;;;;;1.90;1.52;;;;;;;25.52;49.43;99521.84;5011477;28;20461;-88
2023/08/26 01:08:36;;;;;;;2.10;1.13;;;;;;;25.46;49.17;99491.78;5012739;28;20032;-88
2023/08/26 01:11:28;;;;;;;1.77;1.38;;;;;;;25.80;49.09;99543.91;5010597;28;20036;-89
2023/08/26 01:14:06;;;;;;;2.45;1.08;;;;;;;25.71;48.98;99550.91;4993182;28;20485;-88
2023/08/26 01:16:34;;;;;;;4.65;1.38;;;;;;;25.64;49.11;99522.69;4991640;28;20149;-87
2023/08/26 01:19:01;;;;;;;2.53;1.67;;;;;;;25.63;49.09;99509.31;4992849;28;20034;-91
2023/08/26 01:21:35;;;;;;;1.33;0.95;;;;;;;25.61;49.28;99525.66;4985553;28;20124;-88
2023/08/26 01:24:01;;;;;;;2.90;1.52;;;;;;;25.63;49.17;99531.78;5009716;28;20455;-88
2023/08/26 01:26:26;;;;;;;3.13;1.77;;;;;;;25.38;49.27;99516.69;5012023;28;20056;-88
2023/08/26 01:28:52;;;;;;;3.28;1.85;;;;;;;25.45;49.82;99539.50;5012451;28;20488;-88
2023/08/26 01:31:19;;;;;;;2.95;1.95;;;;;;;25.06;49.71;99484.97;5012180;28;20030;-90
2023/08/26 01:34:15;;;;;;;4.85;1.23;;;;;;;25.29;50.14;99528.22;4993628;28;20488;-87
2023/08/26 01:36:44;;;;;;;1.75;1.30;;;;;;;25.07;50.47;99504.72;4968983;28;20042;-88
2023/08/26 01:39:14;;;;;;;1.73;1.13;;;;;;;24.98;50.33;99503.59;4954229;28;20051;-88
2023/08/26 01:41:45;;;;;;;4.97;2.25;;;;;;;25.20;50.32;99514.41;4952725;28;20062;-88
2023/08/26 01:44:11;;;;;;;1.67;1.27;;;;;;;24.97;50.83;99510.81;4969746;28;20114;-88
2023/08/26 01:46:37;;;;;;;2.58;1.58;;;;;;;25.05;50.90;99530.97;4970016;28;20042;-89
2023/08/26 01:49:03;;;;;;;2.00;1.65;;;;;;;24.65;51.88;99486.34;4969353;28;20042;-89
2023/08/26 01:51:30;;;;;;;3.63;2.10;;;;;;;24.63;52.60;99494.56;4968077;28;20046;-89
2023/08/26 01:53:55;;;;;;;1.92;1.40;;;;;;;24.74;52.55;99518.00;4971064;28;20066;-90
2023/08/26 01:56:21;;;;;;;2.38;1.60;;;;;;;24.88;51.97;99527.72;4970218;28;20035;-88
2023/08/26 01:58:46;;;;;;;3.47;2.22;;;;;;;24.71;51.78;99502.06;4970352;28;20030;-89
2023/08/26 02:01:12;;;;;;;1.98;1.27;;;;;;;24.62;52.46;99513.53;4968255;28;20054;-88
2023/08/26 02:03:37;;;;;;;2.60;1.65;;;;;;;24.73;52.22;99515.41;4969885;28;20049;-90
2023/08/26 02:06:03;;;;;;;2.45;1.42;;;;;;;24.59;52.34;99478.72;4970599;28;20494;-90
2023/08/26 02:08:28;;;;;;;2.10;1.50;;;;;;;24.71;53.06;99507.44;4970522;28;20059;-91
2023/08/26 02:10:57;;;;;;;1.75;1.15;;;;;;;24.66;52.46;99482.69;4954492;28;20586;-90
2023/08/26 02:13:26;;;;;;;2.53;1.60;;;;;;;24.97;52.26;99527.00;4980269;28;20424;-89
2023/08/26 02:15:51;;;;;;;7.03;2.40;;;;;;;24.96;52.12;99516.34;5011549;28;20026;-90
2023/08/26 02:18:17;;;;;;;3.70;1.90;;;;;;;24.95;52.64;99518.19;5010781;28;20095;-91
2023/08/26 02:20:43;;;;;;;2.80;1.25;;;;;;;24.93;52.76;99522.84;5011312;28;20025;-91
2023/08/26 02:23:11;;;;;;;3.03;1.38;;;;;;;24.76;52.46;99499.88;5008997;28;20042;-92
2023/08/26 02:25:40;;;;;;;2.45;1.35;;;;;;;24.93;52.90;99536.34;4993507;28;20034;-90
2023/08/26 02:28:06;;;;;;;1.75;1.23;;;;;;;24.77;52.91;99522.31;5010162;28;20041;-90
2023/08/26 02:30:31;;;;;;;1.95;1.20;;;;;;;24.79;53.05;99523.03;5011324;28;20037;-91
2023/08/26 02:32:57;;;;;;;4.22;2.40;;;;;;;24.65;52.96;99519.59;5010102;28;20048;-90
2023/08/26 02:35:23;;;;;;;2.10;1.73;;;;;;;24.68;52.83;99523.84;4993197;28;20117;-94
2023/08/26 02:37:48;;;;;;;2.88;1.75;;;;;;;24.76;53.17;99548.44;4991612;28;20037;-91
2023/08/26 02:40:14;;;;;;;3.08;1.83;;;;;;;24.70;52.88;99515.66;5011167;28;20030;-90
2023/08/26 02:42:39;;;;;;;4.80;1.85;;;;;;;24.29;54.13;99472.81;5010657;28;20519;-89
2023/08/26 02:45:05;;;;;;;4.38;2.50;;;;;;;24.59;54.49;99535.34;5009765;28;20050;-89
2023/08/26 02:47:31;;;;;;;3.92;2.25;;;;;;;24.27;54.96;99496.34;4993414;28;20038;-89
2023/08/26 02:49:57;;;;;;;5.97;3.20;;;;;;;24.21;55.24;99493.25;5010085;28;20437;-90
2023/08/26 02:52:22;;;;;;;4.88;2.55;;;;;;;24.14;55.85;99495.53;5010664;28;20088;-89
2023/08/26 02:54:48;;;;;;;2.15;1.63;;;;;;;24.03;56.62;99506.25;5010152;28;20022;-88
2023/08/26 02:57:14;;;;;;;3.35;1.85;;;;;;;23.75;57.13;99471.41;5011282;28;20041;-87
2023/08/26 02:59:40;;;;;;;3.05;1.80;;;;;;;24.05;56.70;99499.81;5009637;28;20026;-87
2023/08/26 03:02:07;;;;;;;3.25;1.55;;;;;;;24.21;57.15;99539.94;5009775;28;20052;-87
2023/08/26 03:04:35;;;;;;;1.55;1.05;;;;;;;23.81;56.93;99483.56;5009050;28;20045;-88
2023/08/26 03:07:01;;;;;;;3.38;2.38;;;;;;;24.26;56.94;99545.81;5010363;28;20084;-87
2023/08/26 03:09:28;;;;;;;2.38;1.38;;;;;;;24.16;56.58;99523.25;5010502;28;20440;-87
2023/08/26 03:11:54;;;;;;;3.22;2.00;;;;;;;23.88;57.00;99487.56;5009300;28;20030;-88
2023/08/26 03:14:20;;;;;;;5.65;2.10;;;;;;;24.07;57.32;99535.56;5009372;28;20033;-88
2023/08/26 03:16:45;;;;;;;3.13;2.38;;;;;;;24.01;57.63;99532.47;5010203;28;20381;-90
2023/08/26 03:19:11;;;;;;;3.70;2.72;;;;;;;24.00;57.65;99546.91;4993078;28;20489;-91
2023/08/26 03:21:36;;;;;;;5.60;2.55;;;;;;;23.78;58.02;99492.72;5000095;28;20500;-87
2023/08/26 03:24:02;;;;;;;2.63;2.10;;;;;;;23.84;57.78;99539.94;5001161;28;20407;-87
2023/08/26 03:26:27;;;;;;;4.13;2.30;;;;;;;24.04;57.78;99551.09;5010163;28;20087;-88
2023/08/26 03:28:53;;;;;;;1.98;1.23;;;;;;;23.89;57.54;99531.53;5010089;28;20519;-88
2023/08/26 03:31:18;;;;;;;4.82;2.15;;;;;;;23.67;57.68;99500.72;4992573;28;21162;-87
2023/08/26 03:33:43;;;;;;;2.75;2.05;;;;;;;23.90;57.52;99535.94;5008313;28;20034;-87
2023/08/26 03:36:09;;;;;;;5.82;2.47;;;;;;;23.67;57.63;99506.13;4991616;28;20413;-88
2023/08/26 03:38:35;;;;;;;6.82;2.10;;;;;;;23.72;58.56;99555.09;4991189;28;20068;-89
2023/08/26 03:41:05;;;;;;;4.10;2.67;;;;;;;23.81;58.39;99575.13;5009384;28;20042;-89
2023/08/26 03:43:31;;;;;;;2.28;1.80;;;;;;;23.83;58.55;99570.50;5009108;28;20057;-90
2023/08/26 03:45:57;;;;;;;3.75;2.50;;;;;;;23.81;58.46;99561.66;5009016;28;20037;-91
2023/08/26 03:48:22;;;;;;;3.40;1.77;;;;;;;23.93;58.37;99566.19;5010382;28;20463;-90
2023/08/26 03:50:52;;;;;;;2.60;1.90;;;;;;;23.89;58.23;99563.84;4991136;28;20030;-90
2023/08/26 03:53:18;;;;;;;4.70;3.03;;;;;;;23.99;58.38;99596.34;5009180;28;20037;-90
2023/08/26 03:55:44;;;;;;;4.20;2.70;;;;;;;23.73;58.69;99542.53;5002881;28;20046;-90
2023/08/26 03:58:09;;;;;;;5.05;2.42;;;;;;;23.92;58.84;99571.69;4990472;28;20034;-89
2023/08/26 04:00:36;;;;;;;6.03;2.42;;;;;;;23.48;59.46;99530.81;4990205;28;20038;-89
2023/08/26 04:03:02;;;;;;;4.18;2.80;;;;;;;23.81;59.58;99587.75;4990269;28;20049;-89
2023/08/26 04:05:27;;;;;;;3.45;2.22;;;;;;;23.55;59.33;99553.63;4993665;28;20022;-91
2023/08/26 04:07:52;;;;;;;1.65;1.25;;;;;;;23.70;59.86;99575.91;5007343;28;20040;-91
2023/08/26 04:10:18;;;;;;;2.45;1.60;;;;;;;23.77;59.85;99552.06;5010164;28;20037;-92
2023/08/26 04:12:43;;;;;;;2.97;1.95;;;;;;;23.93;59.61;99571.59;5008692;28;20083;-91
2023/08/26 04:15:09;;;;;;;3.38;2.35;;;;;;;23.94;59.48;99577.81;4992450;28;20145;-91
2023/08/26 04:17:35;;;;;;;12.98;3.05;;;;;;;23.90;60.10;99576.34;4991012;28;20470;-91
2023/08/26 04:20:01;;;;;;;6.57;2.15;;;;;;;23.83;60.35;99575.88;5009214;28;20044;-92
2023/08/26 04:22:27;;;;;;;4.13;2.67;;;;;;;23.75;59.88;99562.13;5010396;28;20033;-92
2023/08/26 04:24:52;;;;;;;2.65;1.88;;;;;;;23.94;60.19;99593.97;4991330;28;20524;-92
2023/08/26 04:27:18;;;;;;;6.93;2.53;;;;;;;23.75;60.60;99562.97;5008545;28;20046;-92
2023/08/26 04:29:43;;;;;;;2.65;1.88;;;;;;;23.51;60.83;99553.94;5002501;28;20026;-91
2023/08/26 04:32:08;;;;;;;4.10;1.95;;;;;;;23.57;60.89;99572.34;5000261;28;20056;-92
2023/08/26 04:34:34;;;;;;;3.65;2.33;;;;;;;23.49;61.59;99575.59;4980692;28;20550;-93
2023/08/26 04:36:59;;;;;;;12.13;1.73;;;;;;;23.60;61.16;99548.78;5010715;28;20034;-93
2023/08/26 04:39:25;;;;;;;5.38;2.17;;;;;;;23.83;60.67;99564.25;4992602;28;20033;-91
2023/08/26 04:41:51;;;;;;;3.95;2.97;;;;;;;24.07;60.21;99577.81;5008339;28;20354;-94
2023/08/26 04:44:19;;;;;;;6.90;2.83;;;;;;;24.25;60.17;99589.06;4992547;28;20049;-91
2023/08/26 04:46:45;;;;;;;4.45;2.50;;;;;;;24.43;59.29;99586.84;4991389;28;20030;-92
2023/08/26 04:49:11;;;;;;;4.78;3.45;;;;;;;24.37;59.04;99593.53;4992399;28;20034;-93
2023/08/26 04:51:38;;;;;;;4.90;3.35;;;;;;;24.51;58.73;99607.84;5013212;28;20030;-91
2023/08/26 04:54:04;;;;;;;3.75;2.58;;;;;;;24.46;58.69;99586.63;5011260;28;20504;-91
2023/08/26 04:56:29;;;;;;;5.07;3.53;;;;;;;24.67;58.61;99606.59;5012178;28;20099;-91
2023/08/26 04:58:55;;;;;;;7.28;3.10;;;;;;;24.69;57.72;99582.22;5012015;28;20033;-91
2023/08/26 05:01:21;;;;;;;3.80;2.22;;;;;;;24.70;57.05;99548.00;4995074;28;20033;-90
2023/08/26 05:03:46;;;;;;;3.05;2.03;;;;;;;24.93;56.47;99582.19;5013066;28;20044;-92
2023/08/26 05:06:11;;;;;;;5.20;3.17;;;;;;;24.87;56.19;99582.66;4979969;28;20444;-91
2023/08/26 05:08:37;;;;;;;3.20;2.58;;;;;;;24.73;57.33;99588.22;5004209;28;20096;-91
2023/08/26 05:11:05;;;;;;;3.13;1.60;;;;;;;24.80;57.15;99562.53;5012252;28;20403;-90
2023/08/26 05:13:31;;;;;;;5.10;2.38;;;;;;;25.16;56.21;99583.13;4994155;28;20492;-90
2023/08/26 05:15:56;;;;;;;3.75;1.92;;;;;;;25.29;55.88;99588.44;4993719;28;20107;-90
2023/08/26 05:18:21;;;;;;;4.03;2.38;;;;;;;25.36;55.75;99584.31;4992109;28;20033;-91
2023/08/26 05:20:48;;;;;;;4.10;2.45;;;;;;;25.70;54.84;99584.31;4993943;28;20038;-90
2023/08/26 05:23:14;;;;;;;3.15;1.73;;;;;;;25.81;54.72;99586.16;5011250;28;20069;-90
2023/08/26 05:25:40;;;;;;;3.42;1.50;;;;;;;26.12;54.13;99597.22;5011419;28;20053;-88
2023/08/26 05:28:06;;;;;;;2.63;1.73;;;;;;;26.16;53.25;99587.88;4993668;28;20527;-91
2023/08/26 05:30:33;;;;;;;2.13;1.65;;;;;;;26.45;52.44;99574.66;5009718;28;20044;-89
2023/08/26 05:32:59;;;;;;;5.40;2.97;;;;;;;26.63;51.83;99587.59;5012445;28;20026;-92
2023/08/26 05:35:27;;;;;;;4.07;2.45;;;;;;;26.79;51.42;99584.53;4994860;28;20477;-92
2023/08/26 05:37:52;;;;;;;4.50;1.73;;;;;;;26.91;51.13;99567.25;5012159;28;20129;-92
2023/08/26 05:40:18;;;;;;;2.25;2.05;;;;;;;27.21;50.52;99572.84;5009856;28;20393;-92
2023/08/26 05:42:43;;;;;;;3.80;2.25;;;;;;;27.45;49.82;99599.66;5001244;28;20030;-90
2023/08/26 05:45:09;;;;;;;4.40;2.95;;;;;;;27.42;49.38;99592.69;5003992;28;20050;-92
2023/08/26 05:47:35;;;;;;;4.30;2.40;;;;;;;27.79;48.93;99621.09;5004933;28;20526;-91
2023/08/26 05:50:03;;;;;;;3.10;2.22;;;;;;;27.76;48.31;99592.44;5002493;28;20249;-90
2023/08/26 05:52:28;;;;;;;5.65;3.35;;;;;;;27.55;48.77;99584.34;4993267;28;20034;-91
2023/08/26 05:54:54;;;;;;;4.00;2.58;;;;;;;27.73;49.11;99622.50;5011291;28;20401;-90
2023/08/26 05:57:19;;;;;;;3.15;2.42;;;;;;;27.87;47.93;99577.94;5004067;28;20493;-90
2023/08/26 05:59:45;;;;;;;3.50;2.17;;;;;;;28.18;47.50;99589.59;4994396;28;20045;-91
2023/08/26 06:02:10;;;;;;;5.78;2.33;;;;;;;28.31;47.63;99611.03;4991941;28;20072;-91
2023/08/26 06:04:36;;;;;;;7.45;3.17;;;;;;;28.23;46.58;99570.22;5012047;28;20030;-91
2023/08/26 06:07:01;;;;;;;3.63;1.95;;;;;;;28.24;46.61;99580.06;5010552;28;20121;-90
2023/08/26 06:09:26;;;;;;;4.70;2.65;;;;;;;28.38;47.29;99590.50;5010570;28;20105;-90
2023/08/26 06:11:52;;;;;;;4.00;2.55;;;;;;;28.85;46.64;99610.72;5008601;28;20025;-90
2023/08/26 06:14:18;;;;;;;3.50;2.45;;;;;;;29.06;45.76;99622.28;4993274;28;20109;-93
2023/08/26 06:16:43;;;;;;;7.53;2.45;;;;;;;29.19;45.34;99594.81;4993724;28;20041;-90
2023/08/26 06:19:09;;;;;;;4.25;2.22;;;;;;;29.42;44.14;99581.78;5011367;28;20044;-90
2023/08/26 06:21:34;;;;;;;8.88;3.85;;;;;;;29.73;44.13;99602.44;5009584;28;20029;-90
2023/08/26 06:24:00;;;;;;;5.82;2.47;;;;;;;29.91;44.08;99621.59;4992356;28;20038;-95
2023/08/26 06:26:25;;;;;;;3.78;2.50;;;;;;;29.73;43.56;99602.44;4994108;28;20124;-92
2023/08/26 06:28:51;;;;;;;5.05;2.08;;;;;;;30.06;43.37;99620.09;5010220;28;20123;-90
2023/08/26 06:31:17;;;;;;;2.95;1.92;;;;;;;30.34;42.65;99611.94;4992200;28;20099;-87
2023/08/26 06:33:43;;;;;;;4.63;3.20;;;;;;;30.48;42.24;99595.09;5005329;28;20482;-87
2023/08/26 06:36:09;;;;;;;4.80;2.63;;;;;;;30.84;42.05;99622.31;5008520;28;20034;-89
2023/08/26 06:38:35;;;;;;;4.07;2.90;;;;;;;30.40;42.04;99618.63;5002546;28;20500;-88
2023/08/26 06:41:00;;;;;;;9.77;3.97;;;;;;;30.47;42.03;99612.44;5005155;28;20026;-88
2023/08/26 06:43:27;;;;;;;6.05;3.20;;;;;;;30.88;40.91;99623.72;5002406;28;20042;-87
2023/08/26 06:45:53;;;;;;;2.90;1.98;;;;;;;31.26;41.00;99606.38;5010053;28;20049;-88
2023/08/26 06:48:18;;;;;;;5.32;2.83;;;;;;;31.45;40.03;99605.31;5008817;28;20416;-88
2023/08/26 06:50:50;;;;;;;6.55;3.17;;;;;;;31.67;40.22;99590.31;5002896;28;20042;-88
2023/08/26 06:53:21;;;;;;;3.88;3.08;;;;;;;31.76;38.99;99606.56;5004167;28;20083;-87
2023/08/26 06:55:51;;;;;;;4.93;3.00;;;;;;;31.70;38.95;99617.25;5009780;28;20029;-87
2023/08/26 06:58:17;;;;;;;3.97;2.35;;;;;;;31.72;39.02;99613.34;5001850;28;20493;-87
2023/08/26 07:00:42;;;;;;;5.72;3.65;;;;;;;31.87;38.89;99583.59;5007948;28;20032;-87
2023/08/26 07:03:09;;;;;;;4.80;2.97;;;;;;;31.79;38.92;99605.38;5010910;28;20030;-86
2023/08/26 07:05:35;;;;;;;3.65;2.38;;;;;;;32.23;38.90;99634.44;5009632;28;20120;-87
2023/08/26 07:08:02;;;;;;;4.25;2.35;;;;;;;32.55;37.84;99608.22;5009432;28;20131;-87
2023/08/26 07:10:28;;;;;;;3.55;2.58;;;;;;;32.40;37.04;99599.84;5010312;28;20104;-87
2023/08/26 07:12:53;;;;;;;4.65;2.35;;;;;;;31.83;37.12;99584.09;5000202;28;20464;-87
2023/08/26 07:15:18;;;;;;;5.90;3.10;;;;;;;32.64;36.92;99609.94;5004409;28;20042;-88
2023/08/26 07:17:44;;;;;;;3.97;2.70;;;;;;;33.09;36.62;99618.72;4991766;28;20080;-88
2023/08/26 07:20:10;;;;;;;4.18;2.47;;;;;;;33.20;36.50;99618.44;5007057;28;20061;-87
2023/08/26 07:22:36;;;;;;;5.35;2.72;;;;;;;33.32;36.16;99622.53;5005450;28;20038;-87
2023/08/26 07:25:02;;;;;;;3.15;2.58;;;;;;;32.92;36.81;99621.47;5010134;28;20116;-87
2023/08/26 07:27:27;;;;;;;6.25;3.67;;;;;;;33.14;36.03;99580.84;5009157;28;20472;-88
2023/08/26 07:29:54;;;;;;;3.85;2.42;;;;;;;33.19;35.61;99597.59;4997343;28;20022;-88
2023/08/26 07:32:19;;;;;;;7.35;3.55;;;;;;;33.32;36.11;99561.53;5009051;28;20109;-87
2023/08/26 07:34:45;;;;;;;3.95;2.25;;;;;;;33.25;36.62;99605.09;5009933;28;20113;-88
2023/08/26 07:37:11;;;;;;;3.10;2.50;;;;;;;33.81;36.07;99580.56;5010491;28;20037;-92
2023/08/26 07:39:37;;;;;;;4.50;3.03;;;;;;;34.01;34.82;99599.31;4992595;28;20416;-96
2023/08/26 07:42:05;;;;;;;4.90;2.60;;;;;;;34.28;33.42;99608.97;4994230;28;20030;-90
2023/08/26 07:44:31;;;;;;;4.13;2.55;;;;;;;34.34;34.08;99582.75;4983247;28;20050;-90
2023/08/26 07:46:56;;;;;;;3.05;2.10;;;;;;;33.36;34.85;99557.44;4999274;28;20465;-90
2023/08/26 07:49:22;;;;;;;4.30;1.98;;;;;;;34.02;34.47;99573.66;5001806;28;20029;-86
2023/08/26 07:51:48;;;;;;;3.90;1.95;;;;;;;34.39;33.58;99583.09;5010231;28;20026;-89
2023/08/26 07:54:13;;;;;;;4.22;2.08;;;;;;;33.64;34.16;99582.47;5007502;28;20044;-91
2023/08/26 07:56:39;;;;;;;4.10;2.10;;;;;;;33.54;34.39;99603.72;5008149;28;20456;-88
2023/08/26 07:59:06;;;;;;;3.03;2.30;;;;;;;33.95;35.49;99600.88;4980448;28;20136;-89
2023/08/26 08:01:33;;;;;;;3.92;2.70;;;;;;;33.85;33.84;99590.13;4989061;28;20034;-87
2023/08/26 08:03:59;;;;;;;5.30;2.97;;;;;;;33.61;34.36;99588.28;5008948;28;20041;-92
2023/08/26 08:06:24;;;;;;;5.25;2.83;;;;;;;33.82;34.02;99562.28;4995344;28;20446;-89
2023/08/26 08:08:51;;;;;;;4.78;2.58;;;;;;;34.71;33.07;99589.34;4998815;28;20057;-90
2023/08/26 08:11:17;;;;;;;5.93;2.60;;;;;;;34.74;35.25;99584.38;4988849;28;20048;-89
2023/08/26 08:13:43;;;;;;;3.67;2.15;;;;;;;35.04;32.47;99570.81;4984578;28;20428;-89
2023/08/26 08:16:08;;;;;;;3.08;2.10;;;;;;;35.23;31.88;99566.69;5003213;28;20026;-92
2023/08/26 08:18:35;;;;;;;6.40;2.75;;;;;;;35.14;32.24;99565.06;4990676;28;20531;-93
2023/08/26 08:21:00;;;;;;;3.47;2.45;;;;;;;35.43;31.46;99552.47;4988629;28;20502;-92
2023/08/26 08:23:26;;;;;;;3.78;2.83;;;;;;;35.89;32.65;99560.53;4990085;28;20061;-91
2023/08/26 08:25:53;;;;;;;6.13;3.17;;;;;;;36.08;31.56;99556.34;5011759;28;20041;-95
2023/08/26 08:28:18;;;;;;;8.48;4.55;;;;;;;35.99;30.86;99560.22;4991718;28;20035;-92
2023/08/26 08:30:44;;;;;;;8.38;3.08;;;;;;;35.94;30.77;99568.19;4994887;28;20034;-95
2023/08/26 08:33:09;;;;;;;3.17;2.33;;;;;;;35.48;30.69;99542.66;4985978;28;20033;-93
2023/08/26 08:35:35;;;;;;;4.82;2.53;;;;;;;35.77;30.76;99573.88;4996189;28;20575;-96
2023/08/26 08:38:01;;;;;;;5.10;2.90;;;;;;;35.76;30.70;99563.97;5013627;28;20025;-87
2023/08/26 08:40:26;;;;;;;4.63;2.83;;;;;;;35.96;30.37;99571.59;5012699;28;21578;-88
2023/08/26 08:42:52;;;;;;;7.20;4.15;;;;;;;36.07;29.99;99571.13;4993366;28;20038;-93
2023/08/26 08:45:19;;;;;;;8.95;4.18;;;;;;;35.77;31.89;99540.13;4994825;28;20061;-90
2023/08/26 08:47:46;;;;;;;8.38;2.00;;;;;;;35.32;30.93;99537.34;5012650;28;20040;-94
2023/08/26 08:50:14;;;;;;;6.60;2.72;;;;;;;35.01;32.17;99545.69;4993957;28;20022;-90
2023/08/26 08:52:43;;;;;;;3.45;2.47;;;;;;;35.52;32.28;99562.31;5006717;28;20068;-95
2023/08/26 08:55:08;;;;;;;3.33;2.45;;;;;;;35.50;31.46;99557.03;5010644;28;20083;-93
2023/08/26 08:57:35;;;;;;;5.90;2.70;;;;;;;35.89;30.79;99556.94;5010708;28;20487;-91
2023/08/26 09:00:03;;;;;;;4.55;2.88;;;;;;;36.44;30.23;99551.91;5009726;28;20113;-86
2023/08/26 09:02:29;;;;;;;3.28;2.45;;;;;;;36.02;30.72;99524.16;5009662;28;20073;-86
2023/08/26 09:04:55;;;;;;;5.57;3.08;;;;;;;35.68;30.41;99542.06;4992899;28;20111;-92
2023/08/26 09:07:21;;;;;;;4.80;3.00;;;;;;;35.85;29.94;99510.69;5010678;28;20029;-91
2023/08/26 09:09:47;;;;;;;3.33;1.77;;;;;;;36.37;30.68;99536.22;4992805;28;20034;-88
2023/08/26 09:12:12;;;;;;;3.05;2.38;;;;;;;36.12;30.08;99524.72;5011347;28;20468;-85
2023/08/26 09:14:38;;;;;;;5.40;2.53;;;;;;;35.86;29.33;99508.78;5010012;28;20500;-90
2023/08/26 09:17:19;;;;;;;2.95;1.65;;;;;;;35.63;29.75;99517.94;5011975;28;20014;-90
2023/08/26 09:19:53;;;;;;;4.03;2.85;;;;;;;35.54;29.91;99521.84;5011476;28;20514;-89
2023/08/26 09:22:20;;;;;;;8.40;2.90;;;;;;;35.52;30.07;99506.63;5012133;28;20025;-91
2023/08/26 09:24:46;;;;;;;2.55;1.77;;;;;;;35.41;30.02;99506.06;4992492;28;20471;-91
2023/08/26 09:27:15;;;;;;;3.00;1.98;;;;;;;35.47;31.51;99480.63;5012535;28;20480;-89
2023/08/26 09:29:41;;;;;;;3.28;1.98;;;;;;;35.85;31.22;99521.66;4995601;28;20068;-96
2023/08/26 09:32:15;;;;;;;3.67;2.60;;;;;;;36.09;29.67;99510.53;4997564;28;20046;-94
2023/08/26 09:34:42;;;;;;;3.95;2.67;;;;;;;36.07;29.92;99487.91;4996620;28;20038;-94
2023/08/26 09:37:12;;;;;;;2.10;1.77;;;;;;;35.67;30.27;99504.72;4995082;28;20052;-95
2023/08/26 09:39:49;;;;;;;3.88;2.05;;;;;;;35.82;30.99;99508.34;4997104;28;20026;-94
2023/08/26 09:42:18;;;;;;;3.85;2.13;;;;;;;35.72;30.10;99513.22;4995781;28;20091;-95
2023/08/26 09:44:43;;;;;;;6.70;2.97;;;;;;;34.97;30.12;99469.34;4995497;28;20518;-89
2023/08/26 09:47:12;;;;;;;2.97;2.08;;;;;;;35.08;30.91;99478.97;4986100;28;20030;-95
2023/08/26 09:49:38;;;;;;;7.70;2.60;;;;;;;34.93;30.74;99454.28;4994606;28;20452;-93
2023/08/26 09:52:03;;;;;;;3.10;1.75;;;;;;;35.55;30.13;99501.59;4992690;28;20030;-94
2023/08/26 09:54:31;;;;;;;5.28;2.60;;;;;;;35.68;30.75;99468.00;4993017;28;20084;-93
2023/08/26 09:56:57;;;;;;;4.18;2.80;;;;;;;35.79;30.09;99481.28;4994294;28;20037;-89
2023/08/26 09:59:22;;;;;;;3.30;2.20;;;;;;;35.60;29.56;99490.06;5011463;28;20045;-94
2023/08/26 10:01:48;;;;;;;3.72;2.25;;;;;;;35.22;30.97;99473.69;4994022;28;20033;-93
2023/08/26 10:04:21;;;;;;;3.88;2.00;;;;;;;35.58;29.63;99505.88;4995024;28;20030;-93
2023/08/26 10:06:55;;;;;;;2.58;1.95;;;;;;;35.59;30.05;99499.31;5008274;28;20119;-90
2023/08/26 10:09:52;;;;;;;3.07;2.07;;;;;;;35.52;31.66;99482.78;4992980;28;20065;-93
2023/08/26 10:12:47;;;;;;;4.35;2.45;;;;;;;35.21;30.24;99474.75;4940057;29;20063;-94
2023/08/26 10:15:17;;;;;;;3.13;2.28;;;;;;;35.47;30.60;99480.63;4938277;29;20038;-96
2023/08/26 10:18:08;;;;;;;4.50;2.63;;;;;;;35.78;30.37;99484.22;4957180;28;20130;-96
2023/08/26 10:20:35;;;;;;;3.10;2.25;;;;;;;35.57;30.77;99484.97;4951680;28;20054;-94
2023/08/26 10:23:02;;;;;;;3.33;2.28;;;;;;;35.21;31.55;99430.88;4951449;29;20106;-92
2023/08/26 10:25:30;;;;;;;3.47;1.90;;;;;;;35.62;30.75;99475.13;4936958;29;20163;-96
2023/08/26 10:27:58;;;;;;;4.45;2.75;;;;;;;35.48;30.55;99467.75;4950148;29;20042;-94
2023/08/26 10:30:23;;;;;;;3.55;2.65;;;;;;;35.38;30.39;99464.47;4949517;28;20126;-91
2023/08/26 10:32:58;;;;;;;3.42;2.42;;;;;;;35.39;30.57;99461.53;4950802;29;20043;-94
2023/08/26 10:35:25;;;;;;;3.78;2.65;;;;;;;35.09;30.90;99438.72;4952843;29;20039;-94
2023/08/26 10:37:51;;;;;;;3.42;3.13;;;;;;;35.17;31.00;99454.22;4949007;29;20039;-90
2023/08/26 10:40:17;;;;;;;3.15;2.08;;;;;;;35.19;30.78;99419.25;4948898;28;20035;-92
2023/08/26 10:43:05;;;;;;;4.65;2.70;;;;;;;35.49;30.36;99462.06;4933421;29;20452;-89
2023/08/26 10:45:30;;;;;;;5.43;3.13;;;;;;;35.34;30.05;99458.50;4949809;29;20061;-89
2023/08/26 10:47:56;;;;;;;2.72;1.80;;;;;;;35.22;29.97;99414.25;4953459;28;20888;-90
2023/08/26 10:50:25;;;;;;;5.45;3.05;;;;;;;35.23;29.92;99413.19;4992066;28;20385;-89
2023/08/26 10:53:13;;;;;;;4.00;2.08;;;;;;;35.28;29.70;99401.69;5010918;28;20026;-90
2023/08/26 10:55:38;;;;;;;3.47;1.80;;;;;;;35.41;29.41;99444.91;5009733;28;20512;-92
2023/08/26 10:58:06;;;;;;;3.83;1.98;;;;;;;35.39;29.95;99460.66;5010166;28;20038;-91
2023/08/26 11:00:32;;;;;;;11.55;3.05;;;;;;;35.71;29.11;99442.09;5006667;28;20923;-92
2023/08/26 11:02:59;;;;;;;3.05;2.17;;;;;;;35.52;29.11;99438.06;5008861;28;20038;-91
2023/08/26 11:05:25;;;;;;;7.07;2.72;;;;;;;35.18;30.00;99409.34;5008478;28;20041;-90
2023/08/26 11:07:50;;;;;;;4.28;2.67;;;;;;;35.20;30.02;99408.09;5011713;28;20447;-90
2023/08/26 11:10:31;;;;;;;4.18;1.98;;;;;;;35.17;30.14;99399.41;5001710;28;20026;-96
2023/08/26 11:12:56;;;;;;;8.73;2.63;;;;;;;35.05;30.45;99394.41;4978267;28;20034;-93
2023/08/26 11:15:22;;;;;;;2.90;1.65;;;;;;;34.63;30.45;99386.78;4993549;28;20112;-94
2023/08/26 11:17:49;;;;;;;3.95;1.95;;;;;;;34.96;30.70;99434.75;5012834;28;20037;-95
2023/08/26 11:20:19;;;;;;;4.32;2.35;;;;;;;35.06;30.75;99404.31;4992657;28;20030;-92
2023/08/26 11:22:45;;;;;;;3.28;1.65;;;;;;;35.19;30.16;99430.19;4990285;28;20033;-91
2023/08/26 11:25:17;;;;;;;2.30;1.52;;;;;;;35.57;29.64;99383.50;5012214;28;20046;-96
2023/08/26 11:27:44;;;;;;;3.78;2.15;;;;;;;35.66;28.93;99418.81;4976389;28;20030;-95
2023/08/26 11:30:11;;;;;;;2.83;1.65;;;;;;;35.65;29.90;99375.13;4991604;28;20030;-88
2023/08/26 11:32:37;;;;;;;3.47;1.98;;;;;;;35.96;28.56;99391.34;5008135;28;20055;-87